Aviation Digital Data Service (ADDS)

Output produced by METARs form (2338 UTC 23 May 2022)
found at http://www.aviationweather.gov/metar/data/
 
TAF MPPA 232300Z 2400/2506 32006KT 9999 SCT016 SCT090 
     PROB30 
     TEMPO 2408/2412 00000KT 6000 RA 
     TEMPO 2419/2423 18008KT 6000 TSRA SCT016CB BKN080 
     TEMPO 2502/2506 9999 NSW
       
TAF MPDA 232300Z 2400/2412 22006KT 9999 SCT017 SCT090 
     PROB30 2400/2404 6000 TSRA SCT016CB BKN080
       
TAF MPMG 232300Z 2400/2412 02005KT 9999 SCT016 SCT090 
     PROB30 
     TEMPO 2408/2412 VRB02KT 6000 RA
       
TAF MPTO 232300Z 2400/2506 04006KT 9999 SCT016 SCT090 
     PROB30 
     TEMPO 2408/2412 VRB02KT 6000 RA 
     TEMPO 2419/2423 16008KT 6000 TSRA SCT016CB BKN080 
     TEMPO 2502/2506 9999 NSW